createdAt,value
2019-03-27T00:01:25.090Z,22.13
2019-03-27T00:03:53.124Z,16.83
2019-03-27T00:06:21.174Z,18.13
2019-03-27T00:08:49.153Z,14.77
2019-03-27T00:11:17.260Z,16.00
2019-03-27T00:13:45.224Z,15.57
2019-03-27T00:16:13.190Z,20.13
2019-03-27T00:18:41.134Z,16.03
2019-03-27T00:21:09.159Z,17.87
2019-03-27T00:23:37.129Z,16.23
2019-03-27T00:26:05.109Z,20.03
2019-03-27T00:28:33.059Z,15.70
2019-03-27T00:31:01.155Z,18.83
2019-03-27T00:33:29.169Z,22.63
2019-03-27T00:35:57.199Z,19.07
2019-03-27T00:38:25.263Z,16.57
2019-03-27T00:40:53.199Z,17.97
2019-03-27T00:43:21.269Z,16.17
2019-03-27T00:45:49.329Z,12.70
2019-03-27T00:48:17.353Z,17.00
2019-03-27T00:50:45.366Z,17.53
2019-03-27T00:53:13.340Z,18.17
2019-03-27T00:55:41.321Z,15.47
2019-03-27T00:58:09.299Z,14.73
2019-03-27T01:01:06.775Z,17.27
2019-03-27T01:03:34.765Z,15.80
2019-03-27T01:06:04.799Z,17.93
2019-03-27T01:08:32.808Z,14.63
2019-03-27T01:11:01.777Z,19.27
2019-03-27T01:13:29.834Z,19.30
2019-03-27T01:15:57.769Z,14.80
2019-03-27T01:18:25.839Z,18.77
2019-03-27T01:20:54.187Z,20.90
2019-03-27T01:23:22.173Z,17.17
2019-03-27T01:25:50.124Z,17.60
2019-03-27T01:28:18.094Z,23.37
2019-03-27T01:30:46.049Z,23.07
2019-03-27T01:33:14.068Z,19.37
2019-03-27T01:35:42.025Z,18.23
2019-03-27T01:38:10.039Z,19.53
2019-03-27T01:40:38.044Z,17.13
2019-03-27T01:43:06.098Z,21.63
2019-03-27T01:45:34.059Z,14.43
2019-03-27T01:48:02.073Z,14.90
2019-03-27T01:50:29.999Z,21.87
2019-03-27T01:52:58.131Z,14.73
2019-03-27T01:55:26.109Z,16.73
2019-03-27T01:57:54.099Z,17.60
2019-03-27T02:00:22.157Z,16.83
2019-03-27T02:02:50.150Z,19.83
2019-03-27T02:05:18.098Z,18.57
2019-03-27T02:07:46.059Z,13.83
2019-03-27T02:10:14.405Z,22.67
2019-03-27T02:12:42.423Z,27.23
2019-03-27T02:15:10.602Z,19.93
2019-03-27T02:17:38.579Z,15.67
2019-03-27T02:20:07.772Z,16.63
2019-03-27T02:22:35.921Z,18.23
2019-03-27T02:25:04.014Z,18.63
2019-03-27T02:27:32.003Z,20.47
2019-03-27T02:30:00.011Z,19.33
2019-03-27T02:32:28.017Z,19.33
2019-03-27T02:34:56.062Z,15.83
2019-03-27T02:37:24.051Z,16.03
2019-03-27T02:39:52.151Z,16.07
2019-03-27T02:42:20.345Z,19.27
2019-03-27T02:44:48.300Z,20.20
2019-03-27T02:47:16.229Z,14.83
2019-03-27T02:49:44.354Z,15.67
2019-03-27T02:52:15.309Z,18.60
2019-03-27T02:54:43.506Z,19.83
2019-03-27T02:57:11.630Z,22.30
2019-03-27T02:59:39.679Z,18.87
2019-03-27T03:02:07.839Z,18.17
2019-03-27T03:04:35.820Z,19.50
2019-03-27T03:07:03.744Z,18.87
2019-03-27T03:09:31.729Z,21.63
2019-03-27T03:11:59.734Z,22.17
2019-03-27T03:14:27.744Z,20.47
2019-03-27T03:16:55.816Z,23.67
2019-03-27T03:19:23.797Z,21.63
2019-03-27T03:21:51.752Z,20.60
2019-03-27T03:24:19.745Z,23.33
2019-03-27T03:26:50.796Z,20.07
2019-03-27T03:29:17.605Z,19.87
2019-03-27T03:31:45.605Z,23.27
2019-03-27T03:34:13.618Z,20.80
2019-03-27T03:36:41.556Z,21.20
2019-03-27T03:39:09.584Z,22.77
2019-03-27T03:41:37.514Z,17.13
2019-03-27T03:44:05.530Z,27.20
2019-03-27T03:46:33.481Z,21.40
2019-03-27T03:49:01.498Z,22.00
2019-03-27T03:51:31.265Z,21.67
2019-03-27T03:53:59.379Z,22.67
2019-03-27T03:56:27.432Z,22.70
2019-03-27T03:58:56.550Z,25.50
2019-03-27T04:01:26.273Z,23.37
2019-03-27T04:03:56.298Z,20.90
2019-03-27T04:06:24.290Z,25.97
2019-03-27T04:08:52.292Z,27.80
2019-03-27T04:11:20.230Z,25.63
2019-03-27T04:13:48.319Z,22.90
2019-03-27T04:16:16.240Z,23.13
2019-03-27T04:18:44.230Z,27.87
2019-03-27T04:21:12.190Z,22.77
2019-03-27T04:23:40.191Z,24.57
2019-03-27T04:26:10.782Z,28.77
2019-03-27T04:28:39.166Z,25.67
2019-03-27T04:31:07.116Z,22.80
2019-03-27T04:33:36.017Z,17.20
2019-03-27T04:36:04.605Z,24.57
2019-03-27T04:38:32.570Z,22.27
2019-03-27T04:41:00.569Z,24.30
2019-03-27T04:43:28.517Z,32.47
2019-03-27T04:45:56.504Z,32.20
2019-03-27T04:48:24.455Z,33.27
2019-03-27T04:50:52.440Z,29.07
2019-03-27T04:53:20.418Z,31.80
2019-03-27T04:55:48.429Z,28.77
2019-03-27T04:58:16.370Z,33.80
2019-03-27T05:00:44.409Z,31.70
2019-03-27T05:03:12.334Z,35.37
2019-03-27T05:05:40.380Z,29.60
2019-03-27T05:08:08.339Z,29.43
2019-03-27T05:10:36.364Z,34.30
2019-03-27T05:13:04.306Z,37.37
2019-03-27T05:15:32.332Z,27.50
2019-03-27T05:18:00.267Z,28.07
2019-03-27T05:20:28.831Z,32.87
2019-03-27T05:22:56.939Z,36.37
2019-03-27T05:25:24.974Z,36.80
2019-03-27T05:27:54.650Z,28.43
2019-03-27T05:30:28.994Z,27.73
2019-03-27T05:32:57.084Z,35.37
2019-03-27T05:35:25.409Z,34.80
2019-03-27T05:37:53.395Z,33.97
2019-03-27T05:40:21.542Z,34.87
2019-03-27T05:43:00.042Z,35.93
2019-03-27T05:45:19.464Z,36.90
2019-03-27T05:47:58.833Z,29.60
2019-03-27T05:50:17.399Z,31.23
2019-03-27T05:52:45.335Z,39.30
2019-03-27T05:55:13.419Z,36.67
2019-03-27T05:57:41.484Z,42.30
2019-03-27T06:00:10.491Z,30.13
2019-03-27T06:02:38.432Z,41.07
2019-03-27T06:05:06.604Z,35.47
2019-03-27T06:07:34.570Z,31.07
2019-03-27T06:10:02.639Z,30.67
2019-03-27T06:12:30.620Z,34.77
2019-03-27T06:14:58.639Z,23.17
2019-03-27T06:17:26.569Z,28.57
2019-03-27T06:19:54.595Z,29.43
2019-03-27T06:22:22.540Z,30.97
2019-03-27T06:24:50.540Z,32.57
2019-03-27T06:27:18.482Z,25.90
2019-03-27T06:29:46.464Z,30.67
2019-03-27T06:32:14.444Z,25.33
2019-03-27T06:34:42.450Z,29.23
2019-03-27T06:37:10.409Z,25.20
2019-03-27T06:39:38.474Z,23.33
2019-03-27T06:42:06.490Z,27.30
2019-03-27T06:44:34.534Z,24.87
2019-03-27T06:47:02.584Z,24.20
2019-03-27T06:49:30.582Z,27.43
2019-03-27T06:51:58.554Z,23.83
2019-03-27T06:54:26.613Z,25.93
2019-03-27T06:56:54.594Z,25.33
2019-03-27T06:59:23.028Z,28.13
2019-03-27T07:01:50.969Z,31.97
2019-03-27T07:04:18.949Z,30.93
2019-03-27T07:06:46.889Z,28.13
2019-03-27T07:09:14.855Z,24.37
2019-03-27T07:11:42.841Z,25.93
2019-03-27T07:14:10.804Z,32.67
2019-03-27T07:16:38.945Z,29.33
2019-03-27T07:19:06.900Z,22.97
2019-03-27T07:21:34.910Z,24.87
2019-03-27T07:24:03.574Z,22.83
2019-03-27T07:26:31.579Z,26.33
2019-03-27T07:28:59.529Z,21.73
2019-03-27T07:31:27.529Z,26.10
2019-03-27T07:33:55.554Z,24.77
2019-03-27T07:36:23.552Z,24.77
2019-03-27T07:38:51.658Z,23.83
2019-03-27T07:41:19.845Z,22.80
2019-03-27T07:43:47.917Z,19.70
2019-03-27T07:46:16.083Z,24.23
2019-03-27T07:48:53.895Z,23.27
2019-03-27T07:51:14.417Z,21.57
2019-03-27T07:53:42.578Z,17.40
2019-03-27T07:56:10.719Z,25.57
2019-03-27T07:58:38.818Z,21.83
2019-03-27T08:01:06.978Z,25.77
2019-03-27T08:03:35.077Z,20.83
2019-03-27T08:06:03.221Z,15.77
2019-03-27T08:08:31.477Z,16.80
2019-03-27T08:10:59.697Z,18.93
2019-03-27T08:13:27.854Z,16.07
2019-03-27T08:15:56.217Z,19.90
2019-03-27T08:18:24.357Z,16.40
2019-03-27T08:20:52.580Z,13.73
2019-03-27T08:23:20.658Z,13.13
2019-03-27T08:25:48.865Z,12.47
2019-03-27T08:28:17.117Z,11.73
2019-03-27T08:30:45.237Z,13.70
2019-03-27T08:33:13.320Z,13.03
2019-03-27T08:35:42.617Z,17.77
2019-03-27T08:38:14.909Z,11.63
2019-03-27T08:40:43.925Z,13.77
2019-03-27T08:43:21.155Z,11.93
2019-03-27T08:45:42.138Z,11.83
2019-03-27T08:48:10.243Z,11.23
2019-03-27T08:50:38.617Z,10.47
2019-03-27T08:53:06.838Z,10.03
2019-03-27T08:55:35.078Z,10.60
2019-03-27T08:58:03.137Z,13.27
2019-03-27T09:00:48.500Z,10.47
2019-03-27T09:03:16.966Z,11.67
2019-03-27T09:05:45.302Z,10.13
2019-03-27T09:08:13.557Z,13.07
2019-03-27T09:10:41.765Z,15.40
2019-03-27T09:13:10.144Z,12.13
2019-03-27T09:15:38.362Z,12.00
2019-03-27T09:18:06.657Z,13.10
2019-03-27T09:20:34.937Z,13.77
2019-03-27T09:23:03.178Z,13.93
2019-03-27T09:25:31.280Z,14.73
2019-03-27T09:27:59.478Z,13.80
2019-03-27T09:30:27.877Z,10.43
2019-03-27T09:32:56.178Z,7.70
2019-03-27T09:35:24.457Z,8.50
2019-03-27T09:37:52.604Z,11.47
2019-03-27T09:40:20.837Z,10.10
2019-03-27T09:42:49.057Z,9.73
2019-03-27T09:45:17.478Z,8.83
2019-03-27T09:47:45.676Z,9.57
2019-03-27T09:50:13.919Z,12.37
2019-03-27T09:52:42.176Z,10.93
2019-03-27T09:55:10.458Z,13.63
2019-03-27T09:57:39.123Z,7.57
2019-03-27T10:00:08.612Z,11.60
2019-03-27T10:02:36.838Z,8.17
2019-03-27T10:05:05.304Z,8.83
2019-03-27T10:07:33.398Z,9.20
2019-03-27T10:10:01.497Z,10.97
2019-03-27T10:12:29.658Z,9.37
2019-03-27T10:14:57.757Z,10.40
2019-03-27T10:17:25.845Z,11.00
2019-03-27T10:20:03.217Z,10.00
2019-03-27T10:22:24.120Z,9.40
2019-03-27T10:24:52.238Z,8.30
2019-03-27T10:27:21.478Z,10.03
2019-03-27T10:29:49.763Z,4.97
2019-03-27T10:32:18.157Z,8.40
2019-03-27T10:34:46.326Z,8.67
2019-03-27T10:37:14.541Z,7.90
2019-03-27T10:39:43.719Z,11.17
2019-03-27T10:42:11.877Z,9.10
2019-03-27T10:44:40.128Z,7.57
2019-03-27T10:47:08.340Z,5.37
2019-03-27T10:49:36.446Z,9.70
2019-03-27T10:52:04.837Z,6.67
2019-03-27T10:54:33.379Z,6.13
2019-03-27T10:57:01.582Z,7.50
2019-03-27T10:59:29.685Z,8.93
2019-03-27T11:01:57.756Z,6.53
2019-03-27T11:04:25.917Z,7.43
2019-03-27T11:06:54.077Z,6.27
2019-03-27T11:09:22.341Z,5.07
2019-03-27T11:11:50.425Z,5.33
2019-03-27T11:14:18.833Z,8.53
2019-03-27T11:16:47.178Z,5.33
2019-03-27T11:19:16.477Z,6.20
2019-03-27T11:21:44.598Z,7.20
2019-03-27T11:24:12.777Z,7.23
2019-03-27T11:26:40.894Z,6.93
2019-03-27T11:29:09.137Z,8.40
2019-03-27T11:31:38.497Z,5.03
2019-03-27T11:34:06.777Z,6.67
2019-03-27T11:36:35.277Z,3.83
2019-03-27T11:39:07.060Z,7.10
2019-03-27T11:41:35.237Z,4.80
2019-03-27T11:44:04.065Z,6.30
2019-03-27T11:46:32.467Z,7.00
2019-03-27T11:49:00.778Z,6.10
2019-03-27T11:51:29.137Z,6.10
2019-03-27T11:53:58.457Z,6.70
2019-03-27T11:56:26.657Z,6.00
2019-03-27T11:58:54.838Z,6.37
2019-03-27T12:01:22.978Z,6.57
2019-03-27T12:03:51.117Z,10.37
2019-03-27T12:06:19.238Z,8.97
2019-03-27T12:08:50.661Z,8.97
2019-03-27T12:11:17.418Z,6.90
2019-03-27T12:13:46.777Z,4.97
2019-03-27T12:16:15.037Z,7.80
2019-03-27T12:18:43.666Z,7.77
2019-03-27T12:21:11.897Z,6.87
2019-03-27T12:23:40.337Z,4.77
2019-03-27T12:26:08.437Z,6.23
2019-03-27T12:28:36.705Z,10.67
2019-03-27T12:31:04.941Z,6.67
2019-03-27T12:33:33.138Z,6.40
2019-03-27T12:36:01.437Z,4.57
2019-03-27T12:38:29.697Z,7.03
2019-03-27T12:40:57.958Z,5.80
2019-03-27T12:43:26.240Z,4.77
2019-03-27T12:45:54.516Z,6.17
2019-03-27T12:48:22.678Z,5.13
2019-03-27T12:50:50.877Z,4.50
2019-03-27T12:53:19.202Z,5.47
2019-03-27T12:55:47.377Z,3.33
2019-03-27T12:58:15.438Z,6.43
2019-03-27T13:00:43.598Z,5.90
2019-03-27T13:03:12.038Z,5.03
2019-03-27T13:05:40.365Z,6.70
2019-03-27T13:08:08.545Z,4.30
2019-03-27T13:10:36.718Z,4.73
2019-03-27T13:13:04.978Z,5.57
2019-03-27T13:15:33.258Z,5.40
2019-03-27T13:18:01.577Z,4.63
2019-03-27T13:20:29.758Z,8.03
2019-03-27T13:22:59.979Z,5.57
2019-03-27T13:25:28.117Z,5.10
2019-03-27T13:27:56.312Z,7.30
2019-03-27T13:30:24.737Z,7.97
2019-03-27T13:32:52.857Z,8.33
2019-03-27T13:35:21.017Z,7.87
2019-03-27T13:37:49.207Z,5.77
2019-03-27T13:40:17.997Z,9.33
2019-03-27T13:42:46.137Z,5.97
2019-03-27T13:45:15.020Z,6.90
2019-03-27T13:47:43.157Z,4.43
2019-03-27T13:50:13.189Z,7.17
2019-03-27T13:52:41.766Z,4.53
2019-03-27T13:55:10.058Z,4.27
2019-03-27T13:57:38.798Z,6.87
2019-03-27T14:00:09.539Z,4.23
2019-03-27T14:02:37.717Z,5.37
2019-03-27T14:05:06.357Z,5.43
2019-03-27T14:07:34.518Z,5.47
2019-03-27T14:10:02.685Z,6.37
2019-03-27T14:12:30.897Z,6.10
2019-03-27T14:14:59.080Z,4.33
2019-03-27T14:17:27.209Z,5.60
2019-03-27T14:19:55.457Z,4.93
2019-03-27T14:22:23.680Z,4.00
2019-03-27T14:24:53.299Z,6.63
2019-03-27T14:27:21.417Z,6.17
2019-03-27T14:29:49.857Z,6.87
2019-03-27T14:32:18.098Z,5.40
2019-03-27T14:34:46.838Z,4.87
2019-03-27T14:37:15.217Z,7.43
2019-03-27T14:39:43.497Z,5.73
2019-03-27T14:42:11.680Z,6.33
2019-03-27T14:44:39.878Z,7.50
2019-03-27T14:47:08.117Z,6.47
2019-03-27T14:49:37.787Z,3.13
2019-03-27T14:52:08.529Z,4.97
2019-03-27T14:54:36.518Z,5.30
2019-03-27T14:57:04.843Z,6.07
2019-03-27T14:59:33.217Z,4.00
2019-03-27T15:02:01.737Z,6.33
2019-03-27T15:04:29.977Z,5.40
2019-03-27T15:06:58.260Z,6.63
2019-03-27T15:09:26.806Z,4.93
2019-03-27T15:11:55.017Z,4.63
2019-03-27T15:14:23.318Z,7.07
2019-03-27T15:16:51.598Z,5.60
2019-03-27T15:19:20.165Z,3.60
2019-03-27T15:21:48.418Z,5.53
2019-03-27T15:24:16.519Z,6.27
2019-03-27T15:26:44.980Z,8.53
2019-03-27T15:29:13.876Z,6.97
2019-03-27T15:31:42.516Z,5.67
2019-03-27T15:34:11.137Z,4.70
2019-03-27T15:36:39.492Z,4.83
2019-03-27T15:39:08.008Z,6.03
2019-03-27T15:41:36.536Z,5.63
2019-03-27T15:44:05.645Z,6.10
2019-03-27T15:46:34.157Z,3.90
2019-03-27T15:49:02.741Z,6.23
2019-03-27T15:51:31.316Z,7.20
2019-03-27T15:53:59.878Z,6.87
2019-03-27T15:56:28.306Z,9.07
2019-03-27T15:58:56.938Z,6.83
2019-03-27T16:01:30.995Z,7.10
2019-03-27T16:03:59.517Z,6.07
2019-03-27T16:06:28.781Z,7.13
2019-03-27T16:08:57.306Z,9.87
2019-03-27T16:11:25.997Z,6.37
2019-03-27T16:13:54.575Z,6.80
2019-03-27T16:16:23.296Z,7.13
2019-03-27T16:18:51.857Z,7.67
2019-03-27T16:21:20.538Z,7.17
2019-03-27T16:23:49.117Z,7.63
2019-03-27T16:26:17.798Z,5.27
2019-03-27T16:28:46.377Z,4.83
2019-03-27T16:31:15.059Z,8.27
2019-03-27T16:33:43.698Z,6.77
2019-03-27T16:36:12.477Z,7.57
2019-03-27T16:38:41.037Z,7.03
2019-03-27T16:41:09.796Z,8.63
2019-03-27T16:43:38.457Z,9.80
2019-03-27T16:46:08.457Z,6.07
2019-03-27T16:48:38.261Z,7.60
2019-03-27T16:51:06.715Z,7.63
2019-03-27T16:53:35.042Z,6.43
2019-03-27T16:56:03.535Z,7.20
2019-03-27T16:58:32.040Z,6.93
2019-03-27T17:01:00.556Z,6.93
2019-03-27T17:03:29.130Z,10.03
2019-03-27T17:05:57.581Z,5.83
2019-03-27T17:08:25.866Z,7.07
2019-03-27T17:10:54.295Z,8.77
2019-03-27T17:13:22.641Z,6.93
2019-03-27T17:15:51.111Z,6.83
2019-03-27T17:18:20.670Z,11.20
2019-03-27T17:20:49.166Z,5.37
2019-03-27T17:23:18.897Z,5.70
2019-03-27T17:25:47.668Z,7.10
2019-03-27T17:28:16.196Z,8.90
2019-03-27T17:30:44.670Z,6.60
2019-03-27T17:33:14.314Z,8.93
2019-03-27T17:35:42.877Z,13.37
2019-03-27T17:38:12.377Z,6.33
2019-03-27T17:40:42.979Z,7.23
2019-03-27T17:43:12.629Z,6.53
2019-03-27T17:45:41.119Z,9.37
2019-03-27T17:48:09.660Z,7.93
2019-03-27T17:50:38.427Z,6.57
2019-03-27T17:53:06.977Z,7.07
2019-03-27T17:55:36.549Z,9.03
2019-03-27T17:58:09.726Z,8.73
2019-03-27T18:00:49.172Z,7.53
2019-03-27T18:03:17.735Z,10.43
2019-03-27T18:05:46.226Z,9.33
2019-03-27T18:08:15.607Z,8.63
2019-03-27T18:10:44.084Z,6.63
2019-03-27T18:13:12.619Z,8.23
2019-03-27T18:15:41.075Z,7.30
2019-03-27T18:18:09.638Z,5.63
2019-03-27T18:20:38.141Z,6.73
2019-03-27T18:23:06.659Z,11.47
2019-03-27T18:25:35.085Z,8.57
2019-03-27T18:28:03.646Z,10.20
2019-03-27T18:30:32.125Z,9.57
2019-03-27T18:33:00.530Z,6.07
2019-03-27T18:35:29.416Z,9.77
2019-03-27T18:37:57.954Z,8.17
2019-03-27T18:40:26.455Z,7.30
2019-03-27T18:42:56.180Z,9.53
2019-03-27T18:45:24.775Z,8.63
2019-03-27T18:47:53.327Z,6.40
2019-03-27T18:50:21.801Z,9.67
2019-03-27T18:52:50.346Z,6.93
2019-03-27T18:55:26.354Z,6.80
2019-03-27T18:58:00.171Z,7.13
2019-03-27T19:00:20.771Z,9.00
2019-03-27T19:02:49.399Z,9.63
2019-03-27T19:05:17.910Z,7.03
2019-03-27T19:07:46.450Z,10.37
2019-03-27T19:10:15.115Z,8.10
2019-03-27T19:12:43.665Z,7.93
2019-03-27T19:15:12.200Z,9.43
2019-03-27T19:17:41.470Z,6.50
2019-03-27T19:20:10.035Z,8.23
2019-03-27T19:22:38.435Z,7.93
2019-03-27T19:25:07.340Z,5.33
2019-03-27T19:27:35.782Z,8.47
2019-03-27T19:30:05.410Z,8.07
2019-03-27T19:32:33.980Z,11.33
2019-03-27T19:35:02.385Z,7.23
2019-03-27T19:37:30.885Z,7.67
2019-03-27T19:40:01.089Z,10.37
2019-03-27T19:42:30.181Z,9.37
2019-03-27T19:44:58.826Z,6.73
2019-03-27T19:47:27.425Z,11.80
2019-03-27T19:49:57.206Z,8.00
2019-03-27T19:52:25.675Z,8.33
2019-03-27T19:54:55.377Z,7.80
2019-03-27T19:57:23.830Z,5.67
2019-03-27T19:59:52.390Z,9.03
2019-03-27T20:02:20.867Z,5.97
2019-03-27T20:04:49.375Z,9.90
2019-03-27T20:07:17.775Z,10.17
2019-03-27T20:09:46.336Z,7.47
2019-03-27T20:12:14.807Z,7.83
2019-03-27T20:14:43.355Z,9.97
2019-03-27T20:17:11.819Z,8.70
2019-03-27T20:19:40.265Z,11.97
2019-03-27T20:22:08.734Z,7.80
2019-03-27T20:24:41.124Z,7.87
2019-03-27T20:27:10.091Z,11.53
2019-03-27T20:29:38.660Z,10.30
2019-03-27T20:32:07.150Z,6.87
2019-03-27T20:34:35.680Z,8.13
2019-03-27T20:37:04.140Z,9.53
2019-03-27T20:39:32.960Z,8.50
2019-03-27T20:42:01.414Z,7.70
2019-03-27T20:44:29.935Z,12.27
2019-03-27T20:46:58.305Z,7.23
2019-03-27T20:49:26.825Z,9.20
2019-03-27T20:51:55.394Z,9.97
2019-03-27T20:54:23.979Z,10.33
2019-03-27T20:56:52.470Z,9.17
2019-03-27T20:59:21.003Z,10.03
2019-03-27T21:01:54.460Z,8.27
2019-03-27T21:04:22.995Z,7.80
2019-03-27T21:06:51.390Z,7.37
2019-03-27T21:09:19.962Z,8.60
2019-03-27T21:11:48.830Z,8.77
2019-03-27T21:14:17.373Z,10.97
2019-03-27T21:16:45.920Z,9.97
2019-03-27T21:19:14.470Z,9.87
2019-03-27T21:21:42.768Z,8.93
2019-03-27T21:24:11.144Z,7.70
2019-03-27T21:26:39.601Z,9.83
2019-03-27T21:29:07.959Z,8.43
2019-03-27T21:31:36.385Z,10.30
2019-03-27T21:34:04.735Z,8.57
2019-03-27T21:36:33.086Z,7.37
2019-03-27T21:39:01.240Z,8.67
2019-03-27T21:41:29.374Z,9.47
2019-03-27T21:43:57.459Z,9.03
2019-03-27T21:46:25.975Z,11.70
2019-03-27T21:48:54.105Z,8.77
2019-03-27T21:51:22.205Z,7.77
2019-03-27T21:53:50.927Z,10.40
2019-03-27T21:56:19.250Z,11.53
2019-03-27T21:58:47.780Z,8.67
2019-03-27T22:01:15.800Z,9.53
2019-03-27T22:03:43.755Z,10.57
2019-03-27T22:06:12.555Z,9.63
2019-03-27T22:08:42.624Z,12.90
2019-03-27T22:11:10.648Z,9.83
2019-03-27T22:13:38.935Z,11.90
2019-03-27T22:16:08.204Z,11.37
2019-03-27T22:18:37.212Z,10.17
2019-03-27T22:21:05.439Z,12.57
2019-03-27T22:23:34.725Z,13.37
2019-03-27T22:26:03.165Z,8.90
2019-03-27T22:28:31.283Z,8.73
2019-03-27T22:30:59.410Z,9.47
2019-03-27T22:33:27.643Z,10.67
2019-03-27T22:35:55.969Z,11.43
2019-03-27T22:38:24.584Z,12.63
2019-03-27T22:40:52.618Z,12.73
2019-03-27T22:43:20.835Z,11.70
2019-03-27T22:45:48.934Z,8.77
2019-03-27T22:48:17.139Z,15.37
2019-03-27T22:50:45.359Z,12.17
2019-03-27T22:53:13.518Z,10.73
2019-03-27T22:55:49.479Z,11.60
2019-03-27T22:58:13.098Z,11.70
2019-03-27T23:00:49.200Z,11.47
2019-03-27T23:03:18.840Z,9.83
2019-03-27T23:05:49.739Z,13.30
2019-03-27T23:08:17.828Z,9.63
2019-03-27T23:10:46.070Z,13.07
2019-03-27T23:13:16.350Z,10.20
2019-03-27T23:15:44.835Z,11.50
2019-03-27T23:18:14.088Z,10.60
2019-03-27T23:20:42.553Z,12.77
2019-03-27T23:23:10.780Z,12.40
2019-03-27T23:25:39.139Z,12.33
2019-03-27T23:28:07.134Z,11.93
2019-03-27T23:30:36.166Z,11.77
2019-03-27T23:33:04.250Z,11.23
2019-03-27T23:35:32.399Z,11.90
2019-03-27T23:38:00.434Z,11.53
2019-03-27T23:40:28.555Z,10.33
2019-03-27T23:42:56.555Z,13.67
2019-03-27T23:45:25.900Z,13.17
2019-03-27T23:47:53.971Z,11.57
2019-03-27T23:50:24.180Z,13.73
2019-03-27T23:52:52.146Z,9.33
2019-03-27T23:55:20.250Z,10.80
2019-03-27T23:57:48.309Z,15.03
